Time;durP1;ratioP1;P1;durP2;ratioP2;P2;SDS_P1;SDS_P2;PMS_P1;PMS_P2;Temp;Humidity;BMP_temperature;BMP_pressure;BME280_temperature;BME280_humidity;BME280_pressure;Samples;Min_cycle;Max_cycle;Signal;HPM_P1;HPM_P2
2021/09/03 00:01:10;;;;;;;;;;;;;;;18.82;60.49;102037.78;4974892;28;96902;-75
2021/09/03 00:03:37;;;;;;;;;;;;;;;18.86;60.44;102036.69;4973705;28;96827;-74
2021/09/03 00:06:03;;;;;;;;;;;;;;;18.94;59.70;102034.50;4971236;28;98856;-74
2021/09/03 00:08:29;;;;;;;;;;;;;;;18.83;60.25;102037.72;4972309;28;98849;-74
2021/09/03 00:10:57;;;;;;;;;;;;;;;18.60;60.60;102036.16;4970672;28;97364;-73
2021/09/03 00:13:25;;;;;;;;;;;;;;;18.56;60.82;102031.91;4969593;28;96979;-73
2021/09/03 00:15:52;;;;;;;;;;;;;;;18.57;60.94;102033.66;4963154;28;98062;-74
2021/09/03 00:18:18;;;;;;;;;;;;;;;18.65;60.35;102036.81;4969536;28;99299;-73
2021/09/03 00:20:44;;;;;;;;;;;;;;;18.64;60.59;102035.06;4970426;28;97163;-73
2021/09/03 00:23:10;;;;;;;;;;;;;;;18.74;60.17;102031.94;4972521;28;97315;-73
2021/09/03 00:25:37;;;;;;;;;;;;;;;18.69;60.33;102024.16;4960663;28;98990;-74
2021/09/03 00:28:04;;;;;;;;;;;;;;;18.78;60.23;102028.16;4967497;28;99842;-74
2021/09/03 00:30:31;;;;;;;;;;;;;;;18.85;59.92;102021.56;4972535;28;96712;-73
2021/09/03 00:32:57;;;;;;;;;;;;;;;18.93;59.77;102022.06;4971804;28;96840;-73
2021/09/03 00:35:23;;;;;;;;;;;;;;;18.96;59.33;102021.91;4971631;28;97832;-74
2021/09/03 00:37:49;;;;;;;;;;;;;;;18.96;59.02;102024.59;4971903;28;98801;-74
2021/09/03 00:40:16;;;;;;;;;;;;;;;18.86;59.41;102031.34;4970823;28;96928;-74
2021/09/03 00:42:42;;;;;;;;;;;;;;;18.82;59.67;102024.41;4971728;28;97486;-72
2021/09/03 00:45:10;;;;;;;;;;;;;;;18.87;59.82;102025.03;4971796;28;98905;-72
2021/09/03 00:47:37;;;;;;;;;;;;;;;18.60;60.45;102025.47;4971452;28;98983;-72
2021/09/03 00:50:03;;;;;;;;;;;;;;;18.54;60.99;102022.19;4971798;28;96715;-73
2021/09/03 00:52:30;;;;;;;;;;;;;;;18.62;60.72;102018.22;4957324;28;96910;-73
2021/09/03 00:54:58;;;;;;;;;;;;;;;18.67;60.50;102021.53;4951873;28;97608;-73
2021/09/03 00:57:25;;;;;;;;;;;;;;;18.67;60.39;102018.00;4970884;28;100002;-73
2021/09/03 00:59:53;;;;;;;;;;;;;;;18.78;60.05;102014.78;4970618;28;96801;-74
2021/09/03 01:02:21;;;;;;;;;;;;;;;18.69;60.58;102014.31;4969112;28;96868;-74
2021/09/03 01:04:47;;;;;;;;;;;;;;;18.73;59.94;102008.78;4970710;28;97988;-73
2021/09/03 01:07:14;;;;;;;;;;;;;;;18.91;59.28;102003.38;4969673;28;99201;-74
2021/09/03 01:09:40;;;;;;;;;;;;;;;18.92;59.21;102010.47;4972541;28;97430;-72
2021/09/03 01:12:06;;;;;;;;;;;;;;;18.79;59.29;102004.00;4972360;28;96915;-73
2021/09/03 01:14:33;;;;;;;;;;;;;;;18.77;59.44;102005.03;4974556;28;97798;-72
2021/09/03 01:16:59;;;;;;;;;;;;;;;18.69;59.46;102003.59;4972093;28;98864;-72
2021/09/03 01:19:27;;;;;;;;;;;;;;;18.79;59.47;101997.75;4974528;28;96959;-73
2021/09/03 01:21:54;;;;;;;;;;;;;;;18.80;59.45;102000.38;4970732;28;97593;-73
2021/09/03 01:24:21;;;;;;;;;;;;;;;18.85;59.37;101995.66;4973421;28;97952;-72
2021/09/03 01:26:47;;;;;;;;;;;;;;;18.84;59.15;101991.22;4974256;28;98922;-73
2021/09/03 01:29:13;;;;;;;;;;;;;;;18.89;58.62;101988.34;4974276;28;98294;-73
2021/09/03 01:31:39;;;;;;;;;;;;;;;18.91;59.07;101989.13;4973881;28;97373;-73
2021/09/03 01:34:06;;;;;;;;;;;;;;;19.10;58.71;101987.22;4973689;28;98946;-73
2021/09/03 01:36:32;;;;;;;;;;;;;;;18.98;58.96;101982.50;4973581;28;98981;-73
2021/09/03 01:39:00;;;;;;;;;;;;;;;19.01;58.84;101977.00;4972652;28;96863;-73
2021/09/03 01:41:27;;;;;;;;;;;;;;;18.81;59.19;101979.81;4973165;28;96862;-74
2021/09/03 01:43:53;;;;;;;;;;;;;;;18.71;59.96;101982.94;4973305;28;99476;-74
2021/09/03 01:46:20;;;;;;;;;;;;;;;18.85;59.51;101979.59;4974323;28;99182;-73
2021/09/03 01:48:47;;;;;;;;;;;;;;;18.83;59.44;101977.94;4974378;28;96865;-73
2021/09/03 01:51:13;;;;;;;;;;;;;;;18.90;59.54;101972.22;4964132;28;96926;-73
2021/09/03 01:53:40;;;;;;;;;;;;;;;18.86;59.84;101970.59;4971431;28;98904;-73
2021/09/03 01:56:08;;;;;;;;;;;;;;;18.87;59.23;101969.66;4971137;28;97772;-73
2021/09/03 01:58:34;;;;;;;;;;;;;;;18.86;59.44;101973.28;4972927;28;97109;-73
2021/09/03 02:01:00;;;;;;;;;;;;;;;18.84;59.61;101968.97;4971958;28;97459;-73
2021/09/03 02:03:26;;;;;;;;;;;;;;;18.82;59.65;101969.03;4962649;28;98909;-73
2021/09/03 02:05:53;;;;;;;;;;;;;;;18.70;60.04;101970.53;4965896;28;98919;-73
2021/09/03 02:08:19;;;;;;;;;;;;;;;18.68;60.07;101969.72;4972964;28;97149;-74
2021/09/03 02:10:45;;;;;;;;;;;;;;;18.64;60.55;101964.63;4973372;28;96803;-73
2021/09/03 02:13:13;;;;;;;;;;;;;;;18.62;60.52;101967.38;4971763;28;99295;-73
2021/09/03 02:15:39;;;;;;;;;;;;;;;18.68;60.08;101964.38;4967673;28;98138;-73
2021/09/03 02:18:05;;;;;;;;;;;;;;;18.70;60.24;101961.63;4971849;28;97118;-74
2021/09/03 02:20:32;;;;;;;;;;;;;;;18.76;60.04;101965.81;4968854;28;97151;-73
2021/09/03 02:22:58;;;;;;;;;;;;;;;18.73;59.77;101955.22;4967571;28;99035;-73
2021/09/03 02:25:24;;;;;;;;;;;;;;;18.67;60.37;101951.94;4971235;28;97717;-74
2021/09/03 02:27:50;;;;;;;;;;;;;;;18.68;60.10;101956.34;4973913;28;96778;-74
2021/09/03 02:30:18;;;;;;;;;;;;;;;18.70;59.89;101946.44;4972051;28;96957;-73
2021/09/03 02:32:44;;;;;;;;;;;;;;;18.67;59.77;101938.53;4972393;28;98923;-74
2021/09/03 02:35:10;;;;;;;;;;;;;;;18.66;59.95;101941.28;4977533;28;99281;-74
2021/09/03 02:37:37;;;;;;;;;;;;;;;18.63;59.94;101946.81;4972552;28;96787;-75
2021/09/03 02:40:04;;;;;;;;;;;;;;;18.63;60.29;101945.00;4975220;28;97147;-74
2021/09/03 02:42:30;;;;;;;;;;;;;;;18.55;60.62;101935.59;4972789;28;99079;-73
2021/09/03 02:44:56;;;;;;;;;;;;;;;18.49;60.51;101935.88;4973457;28;98841;-73
2021/09/03 02:47:24;;;;;;;;;;;;;;;18.51;60.55;101932.19;4973069;28;96883;-74
2021/09/03 02:49:50;;;;;;;;;;;;;;;18.60;60.31;101926.41;4972378;28;97134;-75
2021/09/03 02:52:16;;;;;;;;;;;;;;;18.61;60.24;101924.59;4971816;28;99059;-74
2021/09/03 02:54:42;;;;;;;;;;;;;;;18.63;60.34;101934.31;4954830;28;99249;-73
2021/09/03 02:57:08;;;;;;;;;;;;;;;18.54;60.74;101924.00;4972913;28;96896;-74
2021/09/03 02:59:35;;;;;;;;;;;;;;;18.53;60.66;101927.63;4971696;28;96808;-74
2021/09/03 03:02:01;;;;;;;;;;;;;;;18.50;60.39;101916.22;4979586;28;99030;-74
2021/09/03 03:04:30;;;;;;;;;;;;;;;18.52;60.31;101917.84;4960449;28;99351;-74
2021/09/03 03:06:56;;;;;;;;;;;;;;;18.42;60.75;101913.91;4972177;28;96720;-74
2021/09/03 03:09:22;;;;;;;;;;;;;;;18.41;60.72;101911.31;4973094;28;96984;-73
2021/09/03 03:11:49;;;;;;;;;;;;;;;18.45;60.46;101904.84;4969825;28;98977;-73
2021/09/03 03:14:26;;;;;;;;;;;;;;;18.43;60.62;101902.28;4971127;28;98985;-73
2021/09/03 03:16:52;;;;;;;;;;;;;;;18.38;60.79;101901.63;4961774;28;97002;-73
2021/09/03 03:19:18;;;;;;;;;;;;;;;18.40;60.64;101891.72;4971269;28;97368;-72
2021/09/03 03:21:46;;;;;;;;;;;;;;;18.31;60.61;101892.19;4970559;28;99043;-74
2021/09/03 03:24:12;;;;;;;;;;;;;;;18.22;61.17;101889.97;4959146;28;99195;-72
2021/09/03 03:26:38;;;;;;;;;;;;;;;18.29;61.14;101891.38;4971926;28;97007;-74
2021/09/03 03:29:05;;;;;;;;;;;;;;;18.36;60.77;101887.47;4971702;28;97195;-74
2021/09/03 03:31:32;;;;;;;;;;;;;;;18.39;61.02;101886.44;4970066;28;99129;-74
2021/09/03 03:33:58;;;;;;;;;;;;;;;18.34;61.30;101881.31;4972941;28;98684;-74
2021/09/03 03:36:24;;;;;;;;;;;;;;;18.38;60.96;101877.53;4970733;28;98237;-74
2021/09/03 03:38:52;;;;;;;;;;;;;;;18.33;61.10;101887.59;4972395;28;97277;-74
2021/09/03 03:41:18;;;;;;;;;;;;;;;18.41;60.96;101880.06;4970320;28;99059;-73
2021/09/03 03:43:45;;;;;;;;;;;;;;;18.41;60.78;101881.88;4971270;28;98119;-74
2021/09/03 03:46:11;;;;;;;;;;;;;;;18.45;60.81;101878.09;4969637;28;96966;-73
2021/09/03 03:48:37;;;;;;;;;;;;;;;18.37;61.02;101877.63;4971008;28;96872;-74
2021/09/03 03:51:03;;;;;;;;;;;;;;;18.27;61.10;101877.22;4970409;28;99749;-73
2021/09/03 03:53:30;;;;;;;;;;;;;;;18.25;61.39;101873.72;4969183;28;98878;-74
2021/09/03 03:55:57;;;;;;;;;;;;;;;18.40;61.30;101872.09;4968347;28;96978;-73
2021/09/03 03:58:23;;;;;;;;;;;;;;;18.49;60.74;101866.31;4970975;28;97154;-74
2021/09/03 04:00:50;;;;;;;;;;;;;;;18.41;61.09;101863.16;4966274;28;98908;-73
2021/09/03 04:03:16;;;;;;;;;;;;;;;18.39;61.15;101865.03;4970933;28;98940;-73
2021/09/03 04:05:42;;;;;;;;;;;;;;;18.50;61.05;101862.69;4969694;28;97005;-72
2021/09/03 04:08:08;;;;;;;;;;;;;;;18.55;60.76;101861.53;4971554;28;96955;-73
2021/09/03 04:10:35;;;;;;;;;;;;;;;18.57;60.71;101857.00;4969785;28;99521;-73
2021/09/03 04:13:03;;;;;;;;;;;;;;;18.50;60.93;101862.69;4971232;28;99991;-74
2021/09/03 04:15:29;;;;;;;;;;;;;;;18.54;60.69;101854.41;4967539;28;97032;-73
2021/09/03 04:17:55;;;;;;;;;;;;;;;18.52;60.51;101850.94;4970903;28;96933;-73
2021/09/03 04:20:22;;;;;;;;;;;;;;;18.53;60.52;101849.13;4966636;28;99036;-73
2021/09/03 04:22:48;;;;;;;;;;;;;;;18.58;60.56;101849.78;4971660;28;98945;-73
2021/09/03 04:25:15;;;;;;;;;;;;;;;18.53;60.90;101849.13;4972688;28;97130;-73
2021/09/03 04:27:41;;;;;;;;;;;;;;;18.54;60.88;101849.06;4971808;28;97761;-74
2021/09/03 04:30:10;;;;;;;;;;;;;;;18.52;60.46;101845.59;4971483;28;98129;-75
2021/09/03 04:32:36;;;;;;;;;;;;;;;18.57;60.85;101843.59;4975849;28;98930;-74
2021/09/03 04:35:03;;;;;;;;;;;;;;;18.50;60.84;101836.78;4968267;28;96870;-74
2021/09/03 04:37:29;;;;;;;;;;;;;;;18.56;60.63;101838.31;4967320;28;96944;-74
2021/09/03 04:39:55;;;;;;;;;;;;;;;18.59;60.29;101830.97;4970052;28;98995;-74
2021/09/03 04:42:21;;;;;;;;;;;;;;;18.52;60.69;101829.53;4965470;28;97767;-73
2021/09/03 04:44:48;;;;;;;;;;;;;;;18.48;60.61;101816.41;4963792;28;96886;-72
2021/09/03 04:47:15;;;;;;;;;;;;;;;18.60;60.44;101818.47;4972088;28;96992;-73
2021/09/03 04:49:41;;;;;;;;;;;;;;;18.55;60.50;101813.38;4967231;28;98224;-74
2021/09/03 04:52:08;;;;;;;;;;;;;;;18.62;60.40;101819.25;4968388;28;99055;-73
2021/09/03 04:54:34;;;;;;;;;;;;;;;18.68;60.11;101817.13;4965433;28;97028;-74
2021/09/03 04:57:01;;;;;;;;;;;;;;;18.63;60.13;101818.31;4967219;28;97356;-73
2021/09/03 04:59:27;;;;;;;;;;;;;;;18.52;60.37;101813.47;4975288;28;98877;-73
2021/09/03 05:01:53;;;;;;;;;;;;;;;18.65;60.24;101817.28;4968023;28;98782;-74
2021/09/03 05:04:20;;;;;;;;;;;;;;;18.65;60.26;101814.59;4967910;28;97409;-75
2021/09/03 05:06:47;;;;;;;;;;;;;;;18.77;59.92;101812.25;4967447;28;98807;-74
2021/09/03 05:09:13;;;;;;;;;;;;;;;18.87;59.82;101806.31;4973248;28;98901;-74
2021/09/03 05:11:39;;;;;;;;;;;;;;;18.94;59.46;101806.84;4967150;28;99147;-75
2021/09/03 05:14:05;;;;;;;;;;;;;;;18.95;59.71;101808.59;4974932;28;97439;-75
2021/09/03 05:16:32;;;;;;;;;;;;;;;19.03;59.48;101806.38;4974180;28;97142;-73
2021/09/03 05:18:58;;;;;;;;;;;;;;;19.12;59.30;101808.53;4968620;28;98883;-74
2021/09/03 05:21:26;;;;;;;;;;;;;;;19.22;58.79;101811.59;4966385;28;98300;-74
2021/09/03 05:23:52;;;;;;;;;;;;;;;19.26;58.90;101807.78;4958209;28;98089;-74
2021/09/03 05:26:18;;;;;;;;;;;;;;;19.31;58.81;101806.56;4967987;28;97125;-73
2021/09/03 05:28:45;;;;;;;;;;;;;;;19.47;58.52;101804.81;4967329;28;99213;-74
2021/09/03 05:31:11;;;;;;;;;;;;;;;19.30;58.89;101802.16;4969173;28;98793;-73
2021/09/03 05:33:37;;;;;;;;;;;;;;;19.55;58.41;101803.53;4973010;28;96862;-73
2021/09/03 05:36:04;;;;;;;;;;;;;;;19.63;58.01;101803.94;4972935;28;97011;-74
2021/09/03 05:38:31;;;;;;;;;;;;;;;19.53;58.56;101817.00;4966275;28;98937;-73
2021/09/03 05:40:58;;;;;;;;;;;;;;;19.68;58.08;101813.47;4970757;28;98833;-76
2021/09/03 05:43:24;;;;;;;;;;;;;;;19.75;57.81;101805.94;4974287;28;97614;-74
2021/09/03 05:45:50;;;;;;;;;;;;;;;19.60;58.52;101806.81;4973706;28;96883;-74
2021/09/03 05:48:16;;;;;;;;;;;;;;;19.54;58.75;101804.47;4974994;28;98238;-73
2021/09/03 05:50:43;;;;;;;;;;;;;;;19.58;58.40;101809.56;4974833;28;98869;-74
2021/09/03 05:53:09;;;;;;;;;;;;;;;19.79;57.99;101810.16;4975234;28;96855;-74
2021/09/03 05:55:37;;;;;;;;;;;;;;;19.83;57.61;101809.03;4975054;28;97222;-73
2021/09/03 05:58:03;;;;;;;;;;;;;;;19.83;57.35;101819.75;4974400;28;98895;-74
2021/09/03 06:00:31;;;;;;;;;;;;;;;20.03;56.69;101811.44;4973802;28;98111;-74
2021/09/03 06:02:58;;;;;;;;;;;;;;;20.12;55.96;101810.91;4974368;28;96871;-74
2021/09/03 06:05:24;;;;;;;;;;;;;;;19.79;57.16;101810.16;4972372;28;96885;-75
2021/09/03 06:07:51;;;;;;;;;;;;;;;20.16;56.12;101809.75;4974574;28;97595;-73
2021/09/03 06:10:17;;;;;;;;;;;;;;;20.17;55.58;101800.75;4956305;28;99379;-74
2021/09/03 06:12:45;;;;;;;;;;;;;;;20.20;55.76;101797.91;4971269;28;97160;-74
2021/09/03 06:15:11;;;;;;;;;;;;;;;20.07;55.73;101809.44;4967319;28;97336;-72
2021/09/03 06:17:38;;;;;;;;;;;;;;;20.33;55.41;101800.75;4962499;28;99197;-73
2021/09/03 06:20:05;;;;;;;;;;;;;;;20.50;54.77;101797.91;4973650;28;99992;-73
2021/09/03 06:22:31;;;;;;;;;;;;;;;20.46;54.92;101798.22;4970803;28;97882;-73
2021/09/03 06:24:58;;;;;;;;;;;;;;;20.68;54.58;101803.97;4972554;28;97588;-73
2021/09/03 06:27:24;;;;;;;;;;;;;;;20.46;54.84;101803.56;4972021;28;102131;-72
2021/09/03 06:29:55;;;;;;;;;;;;;;;20.28;55.63;101803.66;4971189;28;98903;-73
2021/09/03 06:32:22;;;;;;;;;;;;;;;20.14;55.93;101798.28;4971124;28;97138;-74
2021/09/03 06:34:49;;;;;;;;;;;;;;;19.52;57.28;101801.00;4963573;28;98173;-73
2021/09/03 06:37:16;;;;;;;;;;;;;;;20.15;55.59;101797.28;4969427;28;98921;-74
2021/09/03 06:39:42;;;;;;;;;;;;;;;19.66;56.48;101798.41;4971691;28;99092;-74
2021/09/03 06:42:09;;;;;;;;;;;;;;;20.07;55.60;101788.00;4971807;28;96805;-74
2021/09/03 06:44:36;;;;;;;;;;;;;;;20.47;54.84;101786.50;4973786;28;96987;-74
2021/09/03 06:47:04;;;;;;;;;;;;;;;20.46;54.95;101779.41;4971952;28;98505;-74
2021/09/03 06:49:31;;;;;;;;;;;;;;;20.93;53.85;101780.06;4967797;28;99009;-73
2021/09/03 06:51:57;;;;;;;;;;;;;;;21.06;53.12;101777.47;4971427;28;97856;-75
2021/09/03 06:54:24;;;;;;;;;;;;;;;20.89;53.88;101778.50;4971872;28;97504;-74
2021/09/03 06:56:50;;;;;;;;;;;;;;;21.07;53.30;101774.66;4972065;28;98947;-73
2021/09/03 06:59:16;;;;;;;;;;;;;;;21.30;52.63;101775.06;4967508;28;98885;-74
2021/09/03 07:01:43;;;;;;;;;;;;;;;20.91;54.00;101781.97;4968015;28;97667;-73
2021/09/03 07:04:10;;;;;;;;;;;;;;;20.83;54.28;101778.88;4968905;28;97776;-73
2021/09/03 07:06:37;;;;;;;;;;;;;;;20.70;55.13;101777.91;4973708;28;97670;-73
2021/09/03 07:09:04;;;;;;;;;;;;;;;21.29;53.05;101774.19;4970751;28;99212;-73
2021/09/03 07:11:31;;;;;;;;;;;;;;;21.13;53.84;101777.94;4964986;28;97148;-72
2021/09/03 07:13:57;;;;;;;;;;;;;;;20.96;54.27;101773.59;4967580;28;98140;-72
2021/09/03 07:16:23;;;;;;;;;;;;;;;21.17;53.41;101761.53;4961549;28;98905;-74
2021/09/03 07:18:49;;;;;;;;;;;;;;;21.64;52.61;101755.78;4956816;28;99033;-74
2021/09/03 07:21:17;;;;;;;;;;;;;;;21.82;51.82;101761.75;4959097;28;97350;-72
2021/09/03 07:23:43;;;;;;;;;;;;;;;21.48;52.60;101752.34;4958453;28;98440;-73
2021/09/03 07:26:09;;;;;;;;;;;;;;;20.92;54.67;101753.28;4955965;28;98236;-72
2021/09/03 07:28:36;;;;;;;;;;;;;;;21.45;52.91;101755.25;4957757;28;99410;-74
2021/09/03 07:31:02;;;;;;;;;;;;;;;21.34;53.34;101758.63;4957323;28;98818;-74
2021/09/03 07:33:28;;;;;;;;;;;;;;;20.43;56.01;101753.59;4958346;28;97371;-73
2021/09/03 07:35:55;;;;;;;;;;;;;;;21.29;54.13;101757.19;4959433;28;98563;-74
2021/09/03 07:38:23;;;;;;;;;;;;;;;22.67;50.06;101753.22;4963031;28;99627;-73
2021/09/03 07:40:49;;;;;;;;;;;;;;;22.39;50.58;101754.28;4958803;28;97120;-73
2021/09/03 07:43:15;;;;;;;;;;;;;;;21.42;52.79;101750.06;4959376;28;99398;-73
2021/09/03 07:45:42;;;;;;;;;;;;;;;21.31;53.73;101753.47;4964112;28;98183;-72
2021/09/03 07:48:08;;;;;;;;;;;;;;;21.96;51.79;101750.09;4966927;28;97720;-73
2021/09/03 07:50:35;;;;;;;;;;;;;;;22.19;51.38;101758.34;4965957;28;97155;-74
2021/09/03 07:53:01;;;;;;;;;;;;;;;22.09;51.43;101753.69;4968094;28;98962;-74
2021/09/03 07:55:29;;;;;;;;;;;;;;;22.59;50.44;101769.91;4973501;28;99497;-73
2021/09/03 07:57:55;;;;;;;;;;;;;;;22.78;50.18;101768.66;4967195;28;98986;-74
2021/09/03 08:00:22;;;;;;;;;;;;;;;23.39;48.24;101757.91;4968553;28;96914;-76
2021/09/03 08:02:48;;;;;;;;;;;;;;;22.80;49.64;101759.50;4956255;28;97624;-75
2021/09/03 08:05:14;;;;;;;;;;;;;;;23.37;48.31;101765.22;4964932;28;101000;-73
2021/09/03 08:07:41;;;;;;;;;;;;;;;22.56;50.10;101767.47;4969658;28;98868;-73
2021/09/03 08:10:08;;;;;;;;;;;;;;;23.00;48.64;101761.66;4965778;28;96759;-74
2021/09/03 08:12:36;;;;;;;;;;;;;;;23.25;48.61;101763.44;4971847;28;97509;-72
2021/09/03 08:15:02;;;;;;;;;;;;;;;21.37;53.46;101761.13;4965658;28;98929;-73
2021/09/03 08:17:28;;;;;;;;;;;;;;;22.15;51.18;101761.34;4970368;28;99158;-74
2021/09/03 08:19:55;;;;;;;;;;;;;;;23.02;49.39;101769.63;4967444;28;98848;-73
2021/09/03 08:22:21;;;;;;;;;;;;;;;23.53;48.32;101761.44;4969386;28;97100;-72
2021/09/03 08:24:47;;;;;;;;;;;;;;;23.09;48.98;101752.06;4974167;28;99039;-73
2021/09/03 08:27:13;;;;;;;;;;;;;;;23.22;48.46;101758.28;4981585;28;99227;-73
2021/09/03 08:29:43;;;;;;;;;;;;;;;23.12;48.44;101754.50;4974754;28;97186;-72
2021/09/03 08:32:09;;;;;;;;;;;;;;;22.09;51.12;101759.94;4975339;28;97022;-73
2021/09/03 08:34:36;;;;;;;;;;;;;;;22.96;49.39;101751.22;4969680;28;98885;-75
2021/09/03 08:37:02;;;;;;;;;;;;;;;22.74;49.64;101741.09;4971750;28;98772;-74
2021/09/03 08:39:28;;;;;;;;;;;;;;;22.59;49.59;101739.44;4967129;28;97278;-74
2021/09/03 08:41:54;;;;;;;;;;;;;;;22.69;49.84;101740.53;4967119;28;97874;-74
2021/09/03 08:44:21;;;;;;;;;;;;;;;23.17;48.80;101741.56;4969583;28;98937;-73
2021/09/03 08:46:49;;;;;;;;;;;;;;;23.67;47.37;101745.97;4968271;28;99313;-74
2021/09/03 08:49:15;;;;;;;;;;;;;;;23.94;46.26;101739.47;4973406;28;97272;-72
2021/09/03 08:51:42;;;;;;;;;;;;;;;23.06;48.31;101741.47;4972797;28;96950;-71
2021/09/03 08:54:08;;;;;;;;;;;;;;;22.79;49.07;101736.22;4979726;28;98955;-73
2021/09/03 08:56:34;;;;;;;;;;;;;;;23.62;47.52;101733.81;4981044;28;98846;-72
2021/09/03 08:59:00;;;;;;;;;;;;;;;23.35;47.80;101728.59;4968422;28;96934;-74
2021/09/03 09:01:27;;;;;;;;;;;;;;;23.36;47.24;101723.09;4967943;28;99351;-73
2021/09/03 09:03:54;;;;;;;;;;;;;;;23.08;48.33;101723.38;4967181;28;99501;-73
2021/09/03 09:06:22;;;;;;;;;;;;;;;23.33;47.74;101723.28;4968191;28;99165;-72
2021/09/03 09:08:54;;;;;;;;;;;;;;;23.28;47.18;101721.91;4967579;28;97728;-75
2021/09/03 09:11:20;;;;;;;;;;;;;;;23.26;47.41;101726.53;4968951;28;97168;-74
2021/09/03 09:13:47;;;;;;;;;;;;;;;23.27;47.59;101723.75;4967561;28;99215;-74
2021/09/03 09:16:14;;;;;;;;;;;;;;;23.07;47.94;101718.94;4970813;28;99102;-74
2021/09/03 09:18:42;;;;;;;;;;;;;;;23.41;47.08;101704.72;4967736;28;97525;-74
2021/09/03 09:21:14;;;;;;;;;;;;;;;23.89;46.03;101718.25;4971168;28;97116;-75
2021/09/03 09:23:45;;;;;;;;;;;;;;;23.36;47.01;101711.44;4968119;28;99169;-75
2021/09/03 09:26:12;;;;;;;;;;;;;;;22.84;48.89;101720.59;4971306;28;97849;-74
2021/09/03 09:28:39;;;;;;;;;;;;;;;22.40;50.18;101704.84;4967961;28;97121;-73
2021/09/03 09:31:06;;;;;;;;;;;;;;;23.58;47.43;101708.00;4968147;28;98488;-73
2021/09/03 09:33:32;;;;;;;;;;;;;;;23.39;46.92;101692.31;4970625;28;99022;-74
2021/09/03 09:36:00;;;;;;;;;;;;;;;23.56;46.78;101696.50;4966309;28;99291;-73
2021/09/03 09:38:30;;;;;;;;;;;;;;;23.69;46.75;101689.19;4969882;28;98781;-75
2021/09/03 09:40:57;;;;;;;;;;;;;;;24.25;45.93;101684.88;4967245;28;97881;-74
2021/09/03 09:43:27;;;;;;;;;;;;;;;23.82;46.51;101685.47;4969956;28;100116;-74
2021/09/03 09:46:15;;;;;;;;;;;;;;;23.96;46.00;101687.06;4968859;28;98163;-74
2021/09/03 09:48:42;;;;;;;;;;;;;;;;;;4958168;28;97944;-74
2021/09/03 09:51:11;;;;;;;;;;;;;;;23.27;48.49;101691.38;4969780;28;96751;-73
2021/09/03 09:53:40;;;;;;;;;;;;;;;23.10;48.62;101677.44;4971882;28;99252;-74
2021/09/03 09:56:07;;;;;;;;;;;;;;;24.02;47.02;101678.53;4967893;28;98987;-74
2021/09/03 09:58:34;;;;;;;;;;;;;;;24.27;46.38;101677.50;4970395;28;96869;-74
2021/09/03 10:01:03;;;;;;;;;;;;;;;24.55;45.42;101673.47;4966962;28;99131;-74
2021/09/03 10:03:29;;;;;;;;;;;;;;;24.63;45.66;101665.63;4965764;28;100419;-74
2021/09/03 10:05:55;;;;;;;;;;;;;;;24.91;44.76;101669.69;4968871;28;97590;-74
2021/09/03 10:08:22;;;;;;;;;;;;;;;25.17;44.56;101663.03;4972623;28;96866;-75
2021/09/03 10:10:49;;;;;;;;;;;;;;;25.22;44.08;101668.03;4967479;28;97219;-74
2021/09/03 10:13:16;;;;;;;;;;;;;;;25.21;43.86;101660.91;4970249;28;99060;-75
2021/09/03 10:15:42;;;;;;;;;;;;;;;24.83;44.05;101655.91;4968152;28;98841;-75
2021/09/03 10:18:08;;;;;;;;;;;;;;;24.79;43.99;101651.75;4971117;28;97162;-74
2021/09/03 10:20:36;;;;;;;;;;;;;;;24.12;45.11;101647.13;4969863;28;98733;-75
2021/09/03 10:23:02;;;;;;;;;;;;;;;24.52;43.73;101642.16;4968053;28;99032;-74
2021/09/03 10:25:28;;;;;;;;;;;;;;;24.35;44.03;101645.34;4971027;28;98890;-74
2021/09/03 10:28:06;;;;;;;;;;;;;;;24.36;44.74;101647.06;4968399;28;97792;-75
2021/09/03 10:30:32;;;;;;;;;;;;;;;24.26;45.34;101629.00;4964501;28;97724;-76
2021/09/03 10:33:10;;;;;;;;;;;;;;;24.14;45.34;101638.91;4970291;28;99500;-76
2021/09/03 10:35:36;;;;;;;;;;;;;;;23.87;46.05;101633.81;4968017;28;97586;-74
2021/09/03 10:38:25;;;;;;;;;;;;;;;24.44;44.90;101632.94;4964301;28;97696;-76
2021/09/03 10:40:52;;;;;;;;;;;;;;;24.51;44.34;101621.53;4969878;28;99228;-74
2021/09/03 10:43:39;;;;;;;;;;;;;;;24.48;44.94;101629.03;4971229;28;98393;-72
2021/09/03 10:46:07;;;;;;;;;;;;;;;24.88;43.87;101629.34;4966750;28;100069;-74
2021/09/03 10:48:33;;;;;;;;;;;;;;;24.91;43.88;101624.59;4968017;28;98793;-74
2021/09/03 10:51:00;;;;;;;;;;;;;;;25.06;43.60;101624.34;4970236;28;97380;-74
2021/09/03 10:53:33;;;;;;;;;;;;;;;24.90;44.60;101625.59;4957697;28;99261;-75
2021/09/03 10:56:07;;;;;;;;;;;;;;;24.95;42.73;101623.34;4969024;28;98928;-73
2021/09/03 10:58:39;;;;;;;;;;;;;;;24.12;44.98;101617.44;4969864;28;97239;-74
2021/09/03 11:01:26;;;;;;;;;;;;;;;24.54;43.78;101607.78;4983374;28;96826;-74
2021/09/03 11:03:53;;;;;;;;;;;;;;;24.72;43.69;101610.84;4968311;28;98418;-75
2021/09/03 11:06:28;;;;;;;;;;;;;;;25.11;42.37;101611.28;4966288;28;101060;-74
2021/09/03 11:08:55;;;;;;;;;;;;;;;24.27;44.61;101611.84;4968650;28;97755;-74
2021/09/03 11:11:21;;;;;;;;;;;;;;;24.76;43.12;101597.91;4966974;28;97721;-74
2021/09/03 11:13:49;;;;;;;;;;;;;;;25.09;42.72;101603.28;4969386;28;99052;-73
2021/09/03 11:16:29;;;;;;;;;;;;;;;25.18;42.82;101596.28;4964954;28;99466;-73
2021/09/03 11:19:03;;;;;;;;;;;;;;;25.28;42.27;101606.19;4963946;28;97755;-72
2021/09/03 11:21:30;;;;;;;;;;;;;;;25.31;41.82;101596.97;4969165;28;98940;-75
2021/09/03 11:23:56;;;;;;;;;;;;;;;25.14;41.71;101603.75;4966671;28;98285;-73
2021/09/03 11:26:23;;;;;;;;;;;;;;;25.39;41.31;101605.28;4964564;28;98842;-73
2021/09/03 11:28:50;;;;;;;;;;;;;;;25.46;40.77;101602.94;4964548;28;97396;-73
2021/09/03 11:31:16;;;;;;;;;;;;;;;25.13;41.91;101598.50;4965938;28;97107;-73
2021/09/03 11:33:44;;;;;;;;;;;;;;;25.42;41.22;101603.19;4966190;28;99354;-73
2021/09/03 11:36:11;;;;;;;;;;;;;;;24.37;42.22;101594.75;4969723;28;98841;-74
2021/09/03 11:38:37;;;;;;;;;;;;;;;24.42;42.23;101583.56;4965993;28;97641;-74
2021/09/03 11:41:07;;;;;;;;;;;;;;;24.21;43.29;101589.75;4969026;28;98971;-74
2021/09/03 11:43:34;;;;;;;;;;;;;;;25.00;41.86;101588.72;4968843;28;99507;-74
2021/09/03 11:46:01;;;;;;;;;;;;;;;24.99;41.54;101584.28;4966237;28;98866;-74
2021/09/03 11:48:28;;;;;;;;;;;;;;;25.11;41.89;101586.94;4966717;28;98855;-74
2021/09/03 11:50:58;;;;;;;;;;;;;;;25.08;41.43;101582.63;4966518;28;96878;-73
2021/09/03 11:53:26;;;;;;;;;;;;;;;25.31;40.52;101580.72;4967800;28;98908;-74
2021/09/03 11:55:53;;;;;;;;;;;;;;;25.69;39.88;101575.66;4962385;28;98942;-72
2021/09/03 11:58:19;;;;;;;;;;;;;;;25.55;40.51;101580.50;4962057;28;97478;-73
2021/09/03 12:00:47;;;;;;;;;;;;;;;25.83;39.37;101577.16;4968439;28;97153;-73
2021/09/03 12:03:16;;;;;;;;;;;;;;;25.94;38.91;101570.81;4967467;28;98956;-74
2021/09/03 12:05:43;;;;;;;;;;;;;;;26.12;38.76;101571.94;4962880;28;99045;-73
2021/09/03 12:08:11;;;;;;;;;;;;;;;25.60;39.24;101575.59;4968541;28;97760;-74
2021/09/03 12:10:39;;;;;;;;;;;;;;;25.13;40.02;101569.63;4968646;28;97068;-76
2021/09/03 12:13:09;;;;;;;;;;;;;;;24.78;40.93;101561.69;4968925;28;99847;-73
2021/09/03 12:15:35;;;;;;;;;;;;;;;25.51;39.39;101568.22;4966401;28;98854;-74
2021/09/03 12:18:02;;;;;;;;;;;;;;;26.00;39.19;101563.00;4962882;28;97397;-72
2021/09/03 12:20:31;;;;;;;;;;;;;;;26.10;39.09;101563.06;4964509;28;97338;-74
2021/09/03 12:22:58;;;;;;;;;;;;;;;25.74;38.98;101551.75;4964716;28;99109;-72
2021/09/03 12:25:30;;;;;;;;;;;;;;;26.15;37.91;101555.41;4963773;28;99160;-73
2021/09/03 12:28:06;;;;;;;;;;;;;;;25.49;38.93;101551.25;4963461;28;97394;-73
2021/09/03 12:30:33;;;;;;;;;;;;;;;26.17;37.86;101553.41;4966242;28;98816;-74
2021/09/03 12:33:14;;;;;;;;;;;;;;;25.62;39.09;101543.81;4964707;28;99276;-74
2021/09/03 12:35:44;;;;;;;;;;;;;;;25.41;38.90;101551.91;4967176;28;98805;-74
2021/09/03 12:38:10;;;;;;;;;;;;;;;25.81;38.38;101541.25;4963249;28;97131;-73